Time;durP1;ratioP1;P1;durP2;ratioP2;P2;SDS_P1;SDS_P2;PMS_P1;PMS_P2;Temp;Humidity;BMP_temperature;BMP_pressure;BME280_temperature;BME280_humidity;BME280_pressure;Samples;Min_cycle;Max_cycle;Signal;HPM_P1;HPM_P2
2021/09/18 00:02:32;;;;;;;0.00;0.00;;;;;;;;;;10542374;28;20032;-65
2021/09/18 00:07:36;;;;;;;0.00;0.00;;;;;;;;;;10528135;28;20448;-65
2021/09/18 00:12:40;;;;;;;0.00;0.00;;;;;;;;;;10529024;28;20044;-65
2021/09/18 00:17:43;;;;;;;0.00;0.00;;;;;;;;;;10534057;28;20400;-65
2021/09/18 00:22:46;;;;;;;0.20;0.03;;;;;;;;;;10536654;28;20123;-65
2021/09/18 00:27:50;;;;;;;0.00;0.00;;;;;;;;;;10532977;28;20044;-65
2021/09/18 00:32:53;;;;;;;0.10;0.10;;;;;;;;;;10528700;28;20404;-65
2021/09/18 00:37:55;;;;;;;0.00;0.00;;;;;;;;;;10534595;28;20043;-64
2021/09/18 00:43:01;;;;;;;0.00;0.00;;;;;;;;;;10530942;28;20474;-65
2021/09/18 00:48:04;;;;;;;0.00;0.00;;;;;;;;;;10522079;28;20158;-65
2021/09/18 00:53:07;;;;;;;0.00;0.00;;;;;;;;;;10532036;28;20044;-66
2021/09/18 00:58:11;;;;;;;0.00;0.00;;;;;;;;;;10535414;28;20043;-66
2021/09/18 01:03:14;;;;;;;0.00;0.00;;;;;;;;;;10531377;28;20042;-65
2021/09/18 01:08:21;;;;;;;0.00;0.00;;;;;;;;;;10541266;28;20067;-65
2021/09/18 01:13:25;;;;;;;0.00;0.00;;;;;;;;;;10533227;28;20406;-66
2021/09/18 01:18:33;;;;;;;0.00;0.00;;;;;;;;;;10542223;28;20061;-66
2021/09/18 01:23:37;;;;;;;0.00;0.00;;;;;;;;;;10524465;28;20036;-66
2021/09/18 01:28:41;;;;;;;0.00;0.00;;;;;;;;;;10551793;28;20043;-66
2021/09/18 01:33:43;;;;;;;0.00;0.00;;;;;;;;;;10532660;28;20043;-66
2021/09/18 01:38:49;;;;;;;0.00;0.00;;;;;;;;;;10523223;28;20036;-66
2021/09/18 01:43:52;;;;;;;0.00;0.00;;;;;;;;;;10515875;28;20571;-66
2021/09/18 01:48:54;;;;;;;0.00;0.00;;;;;;;;;;10531888;28;20047;-66
2021/09/18 01:53:58;;;;;;;0.00;0.00;;;;;;;;;;10535544;28;20146;-66
2021/09/18 01:59:01;;;;;;;0.00;0.00;;;;;;;;;;10559785;28;20047;-66
2021/09/18 02:04:04;;;;;;;0.00;0.00;;;;;;;;;;10538639;28;20481;-66
2021/09/18 02:09:09;;;;;;;0.00;0.00;;;;;;;;;;10517261;28;20120;-66
2021/09/18 02:14:11;;;;;;;0.00;0.00;;;;;;;;;;10524047;28;20138;-65
2021/09/18 02:19:14;;;;;;;0.00;0.00;;;;;;;;;;10543411;28;20564;-66
2021/09/18 02:24:18;;;;;;;0.00;0.00;;;;;;;;;;10527249;28;20078;-66
2021/09/18 02:29:21;;;;;;;0.00;0.00;;;;;;;;;;10544319;28;20126;-66
2021/09/18 02:34:24;;;;;;;0.00;0.00;;;;;;;;;;10547932;28;20063;-66
2021/09/18 02:39:28;;;;;;;0.00;0.00;;;;;;;;;;10542756;28;20117;-66
2021/09/18 02:44:31;;;;;;;0.00;0.00;;;;;;;;;;10532378;28;20078;-66
2021/09/18 02:49:34;;;;;;;0.00;0.00;;;;;;;;;;10530256;28;20071;-65
2021/09/18 02:54:38;;;;;;;0.00;0.00;;;;;;;;;;10547694;28;20458;-65
2021/09/18 02:59:42;;;;;;;0.00;0.00;;;;;;;;;;10529098;28;20079;-66
2021/09/18 03:04:45;;;;;;;0.00;0.00;;;;;;;;;;10545565;28;20039;-66
2021/09/18 03:09:49;;;;;;;0.00;0.00;;;;;;;;;;10538101;28;20083;-66
2021/09/18 03:14:52;;;;;;;0.00;0.00;;;;;;;;;;10546160;28;20509;-66
2021/09/18 03:19:56;;;;;;;0.00;0.00;;;;;;;;;;10530477;28;20115;-66
2021/09/18 03:25:00;;;;;;;0.00;0.00;;;;;;;;;;10524389;28;20451;-66
2021/09/18 03:30:03;;;;;;;0.00;0.00;;;;;;;;;;10510824;28;20062;-66
2021/09/18 03:35:07;;;;;;;0.00;0.00;;;;;;;;;;10508177;28;20051;-66
2021/09/18 03:40:12;;;;;;;0.00;0.00;;;;;;;;;;10519916;28;20501;-66
2021/09/18 03:45:15;;;;;;;0.00;0.00;;;;;;;;;;10494337;28;20134;-66
2021/09/18 03:50:18;;;;;;;0.00;0.00;;;;;;;;;;10478583;28;20487;-66
2021/09/18 03:55:22;;;;;;;0.00;0.00;;;;;;;;;;10500155;28;20044;-65
2021/09/18 04:00:25;;;;;;;0.00;0.00;;;;;;;;;;10499679;28;20098;-65
2021/09/18 04:05:28;;;;;;;0.00;0.00;;;;;;;;;;10504564;28;20045;-65
2021/09/18 04:10:32;;;;;;;0.10;0.00;;;;;;;;;;10502935;28;20044;-65
2021/09/18 04:15:35;;;;;;;0.00;0.00;;;;;;;;;;10499748;28;20155;-65
2021/09/18 04:20:38;;;;;;;0.00;0.00;;;;;;;;;;10481442;28;20048;-66
2021/09/18 04:25:42;;;;;;;0.00;0.00;;;;;;;;;;10510391;28;20093;-66
2021/09/18 04:30:47;;;;;;;0.00;0.00;;;;;;;;;;10490803;28;20059;-66
2021/09/18 04:35:50;;;;;;;0.00;0.00;;;;;;;;;;10477725;28;20048;-66
2021/09/18 04:40:55;;;;;;;0.00;0.00;;;;;;;;;;10520478;28;20051;-66
2021/09/18 04:45:58;;;;;;;0.10;0.10;;;;;;;;;;10535384;28;20037;-66
2021/09/18 04:51:01;;;;;;;0.10;0.10;;;;;;;;;;10525200;28;20108;-66
2021/09/18 04:56:05;;;;;;;0.00;0.00;;;;;;;;;;10529827;28;20044;-66
2021/09/18 05:01:08;;;;;;;0.00;0.00;;;;;;;;;;10541922;28;20055;-65
2021/09/18 05:06:11;;;;;;;0.00;0.00;;;;;;;;;;10520089;28;20072;-66
2021/09/18 05:11:15;;;;;;;0.00;0.00;;;;;;;;;;10520524;28;20059;-66
2021/09/18 05:16:18;;;;;;;0.00;0.00;;;;;;;;;;10533022;28;20105;-66
2021/09/18 05:21:21;;;;;;;0.00;0.00;;;;;;;;;;10536372;28;20043;-66
2021/09/18 05:26:26;;;;;;;0.00;0.00;;;;;;;;;;10522547;28;20068;-66
2021/09/18 05:31:29;;;;;;;0.00;0.00;;;;;;;;;;10505606;28;20044;-66
2021/09/18 05:36:33;;;;;;;0.10;0.10;;;;;;;;;;10525788;28;20044;-66
2021/09/18 05:41:38;;;;;;;0.00;0.00;;;;;;;;;;10532662;28;20055;-67
2021/09/18 05:46:41;;;;;;;0.00;0.00;;;;;;;;;;10533479;28;20549;-67
2021/09/18 05:51:44;;;;;;;0.00;0.00;;;;;;;;;;10550672;27;20056;-64
2021/09/18 05:56:48;;;;;;;0.00;0.00;;;;;;;;;;10514059;28;20055;-67
2021/09/18 06:01:55;;;;;;;0.00;0.00;;;;;;;;;;10529832;28;20052;-67
2021/09/18 06:06:58;;;;;;;0.00;0.00;;;;;;;;;;10528567;28;20052;-68
2021/09/18 06:12:02;;;;;;;0.03;0.03;;;;;;;;;;10515523;28;20104;-71
2021/09/18 06:17:05;;;;;;;0.00;0.00;;;;;;;;;;10523696;28;20374;-67
2021/09/18 06:22:12;;;;;;;0.00;0.00;;;;;;;;;;10534883;28;20118;-70
2021/09/18 06:27:16;;;;;;;0.00;0.00;;;;;;;;;;10538301;28;20122;-69
2021/09/18 06:32:20;;;;;;;0.00;0.00;;;;;;;;;;10528843;28;20047;-69
2021/09/18 06:37:23;;;;;;;0.10;0.10;;;;;;;;;;10531697;28;20503;-67
2021/09/18 06:42:27;;;;;;;0.00;0.00;;;;;;;;;;10531321;28;20138;-68
2021/09/18 06:47:30;;;;;;;0.10;0.10;;;;;;;;;;10522795;28;20118;-67
2021/09/18 06:52:33;;;;;;;0.00;0.00;;;;;;;;;;10525256;28;20823;-67
2021/09/18 06:57:38;;;;;;;0.00;0.00;;;;;;;;;;10520013;28;20562;-67
2021/09/18 07:02:42;;;;;;;0.00;0.00;;;;;;;;;;10530862;28;20147;-67
2021/09/18 07:07:46;;;;;;;0.00;0.00;;;;;;;;;;10534628;28;20035;-67
2021/09/18 07:12:50;;;;;;;0.00;0.00;;;;;;;;;;10541922;28;20048;-67
2021/09/18 07:17:54;;;;;;;0.00;0.00;;;;;;;;;;10522107;28;20131;-67
2021/09/18 07:22:57;;;;;;;0.00;0.00;;;;;;;;;;10538976;28;20724;-67
2021/09/18 07:28:01;;;;;;;0.05;0.05;;;;;;;;;;10538461;28;20049;-67
2021/09/18 07:33:04;;;;;;;0.00;0.00;;;;;;;;;;10533530;28;20050;-67
2021/09/18 07:38:08;;;;;;;0.00;0.00;;;;;;;;;;10520917;28;20086;-67
2021/09/18 07:43:12;;;;;;;0.00;0.00;;;;;;;;;;10538867;28;20048;-67
2021/09/18 07:48:16;;;;;;;0.00;0.00;;;;;;;;;;10532895;28;20050;-67
2021/09/18 07:53:19;;;;;;;0.00;0.00;;;;;;;;;;10532992;28;20067;-67
2021/09/18 07:58:23;;;;;;;0.00;0.00;;;;;;;;;;10520268;28;20044;-67
2021/09/18 08:03:26;;;;;;;0.00;0.00;;;;;;;;;;10537223;28;20055;-67
2021/09/18 08:08:29;;;;;;;0.00;0.00;;;;;;;;;;10533906;28;20089;-67
2021/09/18 08:13:33;;;;;;;0.00;0.00;;;;;;;;;;10527906;28;20042;-67
2021/09/18 08:18:36;;;;;;;0.00;0.00;;;;;;;;;;10520912;28;20903;-67
2021/09/18 08:23:40;;;;;;;0.00;0.00;;;;;;;;;;10539262;28;20051;-67
2021/09/18 08:28:44;;;;;;;0.00;0.00;;;;;;;;;;10524050;28;20131;-67
2021/09/18 08:33:47;;;;;;;0.00;0.00;;;;;;;;;;10524815;28;20443;-67
2021/09/18 08:38:50;;;;;;;0.00;0.00;;;;;;;;;;10507467;28;20459;-67
2021/09/18 08:43:54;;;;;;;0.00;0.00;;;;;;;;;;10539654;28;20055;-67
2021/09/18 08:48:57;;;;;;;0.00;0.00;;;;;;;;;;10543254;28;20043;-67
2021/09/18 08:54:00;;;;;;;0.00;0.00;;;;;;;;;;10533028;28;20051;-67
2021/09/18 08:59:04;;;;;;;0.00;0.00;;;;;;;;;;10517189;28;20055;-67
2021/09/18 09:04:07;;;;;;;0.00;0.00;;;;;;;;;;10513306;28;20074;-67
2021/09/18 09:09:17;;;;;;;0.00;0.00;;;;;;;;;;10529780;28;20043;-67
2021/09/18 09:14:21;;;;;;;0.00;0.00;;;;;;;;;;10531473;28;20503;-67
2021/09/18 09:19:25;;;;;;;0.00;0.00;;;;;;;;;;10535614;28;20375;-67
2021/09/18 09:24:28;;;;;;;0.00;0.00;;;;;;;;;;10519373;28;20052;-67
2021/09/18 09:29:43;;;;;;;0.00;0.00;;;;;;;;;;10539178;28;20043;-68
2021/09/18 09:34:52;;;;;;;0.00;0.00;;;;;;;;;;10527742;28;20044;-68
2021/09/18 09:39:57;;;;;;;0.00;0.00;;;;;;;;;;10518014;28;20888;-68
2021/09/18 09:45:11;;;;;;;0.00;0.00;;;;;;;;;;10521778;28;20055;-69
2021/09/18 09:50:14;;;;;;;0.00;0.00;;;;;;;;;;10525805;28;20040;-68
2021/09/18 09:55:19;;;;;;;0.00;0.00;;;;;;;;;;10536338;28;20040;-70
2021/09/18 10:00:23;;;;;;;0.00;0.00;;;;;;;;;;10534029;28;20542;-68
2021/09/18 10:05:28;;;;;;;0.00;0.00;;;;;;;;;;10538753;28;20040;-70
2021/09/18 10:10:31;;;;;;;0.00;0.00;;;;;;;;;;10538960;28;20048;-67
2021/09/18 10:15:35;;;;;;;0.00;0.00;;;;;;;;;;10538825;28;20045;-72
2021/09/18 10:26:00;;;;;;;0.00;0.00;;;;;;;;;;10511822;28;20048;-65
2021/09/18 10:31:14;;;;;;;0.00;0.00;;;;;;;;;;10539359;28;20561;-73
2021/09/18 10:36:18;;;;;;;0.00;0.00;;;;;;;;;;10517339;28;20050;-66
2021/09/18 10:41:24;;;;;;;0.00;0.00;;;;;;;;;;10540308;28;20436;-66
2021/09/18 10:46:42;;;;;;;0.00;0.00;;;;;;;;;;10533395;28;20052;-66
2021/09/18 10:51:46;;;;;;;0.00;0.00;;;;;;;;;;10537332;28;20051;-66
2021/09/18 10:57:03;;;;;;;0.00;0.00;;;;;;;;;;10542978;28;20039;-66
2021/09/18 11:02:20;;;;;;;0.00;0.00;;;;;;;;;;10538796;28;20043;-66
2021/09/18 11:13:09;;;;;;;0.00;0.00;;;;;;;;;;10605604;27;20124;-67
2021/09/18 11:18:17;;;;;;;0.00;0.00;;;;;;;;;;10581925;28;20841;-66
2021/09/18 11:23:32;;;;;;;0.00;0.00;;;;;;;;;;10579850;28;20047;-66
2021/09/18 11:28:35;;;;;;;0.00;0.00;;;;;;;;;;10571105;28;20043;-66
2021/09/18 11:33:39;;;;;;;0.00;0.00;;;;;;;;;;10583458;27;20043;-66
2021/09/18 11:38:44;;;;;;;0.00;0.00;;;;;;;;;;10565868;28;20039;-66
2021/09/18 11:43:47;;;;;;;0.00;0.00;;;;;;;;;;10567235;28;20044;-66
2021/09/18 11:48:57;;;;;;;0.00;0.00;;;;;;;;;;10569501;28;20466;-66
2021/09/18 11:54:00;;;;;;;0.00;0.00;;;;;;;;;;10569149;28;20373;-68
2021/09/18 11:59:07;;;;;;;0.00;0.00;;;;;;;;;;10572044;28;20481;-67
2021/09/18 12:04:12;;;;;;;0.00;0.00;;;;;;;;;;10571462;28;20051;-67
2021/09/18 12:09:15;;;;;;;0.00;0.00;;;;;;;;;;10571908;28;20051;-67
2021/09/18 12:14:29;;;;;;;0.00;0.00;;;;;;;;;;10574908;27;20488;-68
2021/09/18 12:19:34;;;;;;;0.00;0.00;;;;;;;;;;10572968;28;20498;-68
2021/09/18 12:24:38;;;;;;;0.00;0.00;;;;;;;;;;10547030;28;20050;-68
2021/09/18 12:29:53;;;;;;;0.00;0.00;;;;;;;;;;10535701;28;20051;-68
2021/09/18 12:34:58;;;;;;;0.00;0.00;;;;;;;;;;10545282;28;20591;-68
2021/09/18 12:40:14;;;;;;;0.00;0.00;;;;;;;;;;10550578;28;20044;-69
2021/09/18 12:45:21;;;;;;;0.00;0.00;;;;;;;;;;10545004;28;20055;-69
2021/09/18 12:50:25;;;;;;;0.00;0.00;;;;;;;;;;10540041;28;20168;-69
2021/09/18 12:55:28;;;;;;;0.00;0.00;;;;;;;;;;10547541;28;20035;-69
2021/09/18 13:00:31;;;;;;;0.00;0.00;;;;;;;;;;10537413;28;20050;-69
2021/09/18 13:05:35;;;;;;;0.00;0.00;;;;;;;;;;10541338;28;20111;-69
2021/09/18 13:10:38;;;;;;;0.00;0.00;;;;;;;;;;10543933;28;20050;-69
2021/09/18 13:15:41;;;;;;;0.00;0.00;;;;;;;;;;10540891;28;20043;-69
2021/09/18 13:20:49;;;;;;;0.00;0.00;;;;;;;;;;10534994;28;20046;-69
2021/09/18 13:25:54;;;;;;;0.00;0.00;;;;;;;;;;10519169;28;20111;-69
2021/09/18 13:30:58;;;;;;;0.00;0.00;;;;;;;;;;10528265;28;20051;-69
2021/09/18 13:36:02;;;;;;;0.00;0.00;;;;;;;;;;10526126;28;20384;-69
2021/09/18 13:41:05;;;;;;;0.00;0.00;;;;;;;;;;10528930;28;20040;-69
2021/09/18 13:46:08;;;;;;;0.00;0.00;;;;;;;;;;10533678;28;20784;-69
2021/09/18 13:51:13;;;;;;;0.00;0.00;;;;;;;;;;10536691;28;20032;-68
2021/09/18 13:56:16;;;;;;;0.00;0.00;;;;;;;;;;10531956;28;20047;-69
2021/09/18 14:01:19;;;;;;;0.00;0.00;;;;;;;;;;10540772;28;20040;-68
2021/09/18 14:06:24;;;;;;;0.00;0.00;;;;;;;;;;10537573;28;20130;-69
2021/09/18 14:11:26;;;;;;;0.00;0.00;;;;;;;;;;10543368;28;20044;-69
2021/09/18 14:16:29;;;;;;;0.00;0.00;;;;;;;;;;10541630;28;20082;-69
2021/09/18 14:21:33;;;;;;;0.00;0.00;;;;;;;;;;10543335;28;20147;-69
2021/09/18 14:26:36;;;;;;;0.00;0.00;;;;;;;;;;10543182;28;20044;-68
2021/09/18 14:31:40;;;;;;;0.03;0.00;;;;;;;;;;10544280;28;20482;-69
2021/09/18 14:36:44;;;;;;;0.00;0.00;;;;;;;;;;10535794;28;20899;-69
2021/09/18 14:41:46;;;;;;;0.00;0.00;;;;;;;;;;10546989;28;20040;-69
2021/09/18 14:46:49;;;;;;;0.00;0.00;;;;;;;;;;10545150;28;20043;-68
2021/09/18 14:51:54;;;;;;;0.00;0.00;;;;;;;;;;10540249;28;20051;-69
2021/09/18 14:56:56;;;;;;;0.00;0.00;;;;;;;;;;10545399;28;20039;-68
2021/09/18 15:01:59;;;;;;;0.00;0.00;;;;;;;;;;10539729;28;20165;-68
2021/09/18 15:07:04;;;;;;;0.00;0.00;;;;;;;;;;10532167;28;20159;-68
2021/09/18 15:12:07;;;;;;;0.00;0.00;;;;;;;;;;10531252;28;20138;-68
2021/09/18 15:17:10;;;;;;;0.00;0.00;;;;;;;;;;10531363;28;20130;-68
2021/09/18 15:22:14;;;;;;;0.00;0.00;;;;;;;;;;10537453;28;20109;-68
2021/09/18 15:27:17;;;;;;;0.00;0.00;;;;;;;;;;10539481;28;20036;-68
2021/09/18 15:32:20;;;;;;;0.00;0.00;;;;;;;;;;10528885;28;20060;-68
2021/09/18 15:37:24;;;;;;;0.00;0.00;;;;;;;;;;10537989;28;20044;-68
2021/09/18 15:42:27;;;;;;;0.00;0.00;;;;;;;;;;10533249;28;20048;-68
2021/09/18 15:47:29;;;;;;;0.00;0.00;;;;;;;;;;10536398;28;20409;-68
2021/09/18 15:52:33;;;;;;;0.00;0.00;;;;;;;;;;10545210;28;20125;-68
2021/09/18 15:57:36;;;;;;;0.00;0.00;;;;;;;;;;10539790;28;20456;-68
2021/09/18 16:02:40;;;;;;;0.00;0.00;;;;;;;;;;10543818;28;20397;-68
2021/09/18 16:07:44;;;;;;;0.00;0.00;;;;;;;;;;10546184;28;20049;-68
2021/09/18 16:12:47;;;;;;;0.00;0.00;;;;;;;;;;10549817;28;20051;-68
2021/09/18 16:17:50;;;;;;;0.00;0.00;;;;;;;;;;10558346;28;20118;-68
2021/09/18 16:22:55;;;;;;;0.00;0.00;;;;;;;;;;10554109;28;20525;-68
2021/09/18 16:27:58;;;;;;;0.00;0.00;;;;;;;;;;10550618;28;20054;-68
2021/09/18 16:33:01;;;;;;;0.00;0.00;;;;;;;;;;10529294;28;20047;-68
2021/09/18 16:38:06;;;;;;;0.00;0.00;;;;;;;;;;10532040;28;20055;-68
2021/09/18 16:43:08;;;;;;;0.00;0.00;;;;;;;;;;10542158;28;20051;-68
2021/09/18 16:48:11;;;;;;;0.00;0.00;;;;;;;;;;10533232;28;20059;-68
2021/09/18 16:53:15;;;;;;;0.00;0.00;;;;;;;;;;10534137;28;20127;-68
2021/09/18 16:58:18;;;;;;;0.00;0.00;;;;;;;;;;10538570;28;20052;-68
2021/09/18 17:03:21;;;;;;;0.00;0.00;;;;;;;;;;10541826;28;20036;-68
2021/09/18 17:08:26;;;;;;;0.00;0.00;;;;;;;;;;10534687;28;20132;-68
2021/09/18 17:13:28;;;;;;;0.00;0.00;;;;;;;;;;10537556;28;20039;-68
2021/09/18 17:18:31;;;;;;;0.00;0.00;;;;;;;;;;10540716;28;20093;-67
2021/09/18 17:23:35;;;;;;;0.00;0.00;;;;;;;;;;10546591;28;20036;-67
2021/09/18 17:28:39;;;;;;;0.00;0.00;;;;;;;;;;10541315;28;20035;-67
2021/09/18 17:33:45;;;;;;;0.00;0.00;;;;;;;;;;10546372;28;20055;-71
2021/09/18 17:38:49;;;;;;;0.00;0.00;;;;;;;;;;10552415;28;20036;-73
2021/09/18 17:43:53;;;;;;;0.00;0.00;;;;;;;;;;10543009;28;20042;-65
2021/09/18 17:49:01;;;;;;;0.00;0.00;;;;;;;;;;10545877;28;20071;-72
2021/09/18 17:54:06;;;;;;;0.00;0.00;;;;;;;;;;10552015;28;20035;-72
2021/09/18 17:59:09;;;;;;;0.00;0.00;;;;;;;;;;10550853;28;20048;-69
2021/09/18 18:04:12;;;;;;;0.00;0.00;;;;;;;;;;10553613;28;20038;-69
2021/09/18 18:09:16;;;;;;;0.00;0.00;;;;;;;;;;10540106;28;20060;-69
2021/09/18 18:14:19;;;;;;;0.00;0.00;;;;;;;;;;10535190;28;20039;-69
2021/09/18 18:19:25;;;;;;;0.00;0.00;;;;;;;;;;10527099;28;20036;-69
2021/09/18 18:24:29;;;;;;;0.00;0.00;;;;;;;;;;10538377;28;20036;-69
2021/09/18 18:29:32;;;;;;;0.00;0.00;;;;;;;;;;10532984;28;20055;-69
2021/09/18 18:34:35;;;;;;;0.00;0.00;;;;;;;;;;10539649;28;20039;-69
2021/09/18 18:39:39;;;;;;;0.00;0.00;;;;;;;;;;10538090;28;20524;-69
2021/09/18 18:44:43;;;;;;;0.00;0.00;;;;;;;;;;10540512;28;20397;-69
2021/09/18 18:49:47;;;;;;;0.00;0.00;;;;;;;;;;10532233;28;20054;-69
2021/09/18 18:54:51;;;;;;;0.00;0.00;;;;;;;;;;10540774;28;20071;-69
2021/09/18 18:59:54;;;;;;;0.00;0.00;;;;;;;;;;10544043;28;20893;-69
2021/09/18 19:04:56;;;;;;;0.00;0.00;;;;;;;;;;10539686;28;20550;-69
2021/09/18 19:10:04;;;;;;;0.00;0.00;;;;;;;;;;10540714;28;20141;-69
2021/09/18 19:15:09;;;;;;;0.00;0.00;;;;;;;;;;10548335;28;20085;-69
2021/09/18 19:20:13;;;;;;;0.00;0.00;;;;;;;;;;10544895;28;20036;-69
2021/09/18 19:25:17;;;;;;;0.00;0.00;;;;;;;;;;10542945;28;20110;-69
2021/09/18 19:30:21;;;;;;;0.00;0.00;;;;;;;;;;10545723;28;20048;-70
2021/09/18 19:35:24;;;;;;;0.00;0.00;;;;;;;;;;10554394;28;20042;-70
2021/09/18 19:40:29;;;;;;;0.00;0.00;;;;;;;;;;10552656;28;20138;-70
2021/09/18 19:45:32;;;;;;;0.00;0.00;;;;;;;;;;10556389;28;20028;-70
2021/09/18 19:50:35;;;;;;;0.00;0.00;;;;;;;;;;10539495;28;20052;-70
2021/09/18 19:55:40;;;;;;;0.00;0.00;;;;;;;;;;10539090;28;20039;-70
2021/09/18 20:00:43;;;;;;;0.00;0.00;;;;;;;;;;10543502;28;20378;-70
2021/09/18 20:05:46;;;;;;;0.00;0.00;;;;;;;;;;10542652;28;20116;-70
2021/09/18 20:10:50;;;;;;;0.00;0.00;;;;;;;;;;10545241;28;20071;-70
2021/09/18 20:15:53;;;;;;;0.10;0.10;;;;;;;;;;10545264;28;20040;-70
2021/09/18 20:20:58;;;;;;;0.00;0.00;;;;;;;;;;10539970;28;20051;-70
2021/09/18 20:26:02;;;;;;;0.00;0.00;;;;;;;;;;10524493;28;20057;-70
2021/09/18 20:31:05;;;;;;;0.00;0.00;;;;;;;;;;10421069;28;20107;-70
2021/09/18 20:36:08;;;;;;;0.00;0.00;;;;;;;;;;10423861;28;20534;-70
2021/09/18 20:41:12;;;;;;;0.00;0.00;;;;;;;;;;10426866;28;20049;-70
2021/09/18 20:46:16;;;;;;;0.00;0.00;;;;;;;;;;10421779;28;20048;-70
2021/09/18 20:51:19;;;;;;;0.00;0.00;;;;;;;;;;10431704;28;20098;-70
2021/09/18 20:56:23;;;;;;;0.00;0.00;;;;;;;;;;10423943;28;20497;-70
2021/09/18 21:06:43;;;;;;;0.00;0.00;;;;;;;;;;10422655;28;20053;-70
2021/09/18 21:11:48;;;;;;;0.00;0.00;;;;;;;;;;10429069;28;20412;-70
2021/09/18 21:16:55;;;;;;;0.00;0.00;;;;;;;;;;10427117;28;20502;-70
2021/09/18 21:21:58;;;;;;;0.00;0.00;;;;;;;;;;10427777;28;20046;-70
2021/09/18 21:27:03;;;;;;;0.00;0.00;;;;;;;;;;10429430;28;20392;-70
2021/09/18 21:32:06;;;;;;;0.00;0.00;;;;;;;;;;10422990;28;20140;-70
2021/09/18 21:37:09;;;;;;;0.00;0.00;;;;;;;;;;10412822;28;20061;-70
2021/09/18 21:42:13;;;;;;;0.00;0.00;;;;;;;;;;10407025;28;20678;-70
2021/09/18 21:47:16;;;;;;;0.00;0.00;;;;;;;;;;10416630;28;20055;-70
2021/09/18 21:52:19;;;;;;;0.00;0.00;;;;;;;;;;10422587;28;20056;-70
2021/09/18 21:57:23;;;;;;;0.00;0.00;;;;;;;;;;10429557;28;20672;-70
2021/09/18 22:02:26;;;;;;;0.00;0.00;;;;;;;;;;10424044;28;20517;-70
2021/09/18 22:07:31;;;;;;;0.00;0.00;;;;;;;;;;10432257;28;20784;-71
2021/09/18 22:12:36;;;;;;;0.00;0.00;;;;;;;;;;10424321;28;20060;-70
2021/09/18 22:17:39;;;;;;;0.00;0.00;;;;;;;;;;10426226;28;20762;-70
2021/09/18 22:22:42;;;;;;;0.00;0.00;;;;;;;;;;10423679;28;20063;-70
2021/09/18 22:27:48;;;;;;;0.00;0.00;;;;;;;;;;10428772;28;20086;-70
2021/09/18 22:32:51;;;;;;;0.00;0.00;;;;;;;;;;10425025;28;20067;-70
2021/09/18 22:37:54;;;;;;;0.00;0.00;;;;;;;;;;10423161;28;20064;-70
2021/09/18 22:42:58;;;;;;;0.00;0.00;;;;;;;;;;10427260;28;20068;-70
2021/09/18 22:48:03;;;;;;;0.00;0.00;;;;;;;;;;10424680;28;20045;-70
2021/09/18 22:53:06;;;;;;;0.00;0.00;;;;;;;;;;10427519;28;20049;-70
2021/09/18 22:58:10;;;;;;;0.00;0.00;;;;;;;;;;10428191;28;20057;-70
2021/09/18 23:03:13;;;;;;;0.00;0.00;;;;;;;;;;10423288;28;20041;-70
2021/09/18 23:08:16;;;;;;;0.00;0.00;;;;;;;;;;10414276;28;20048;-70
2021/09/18 23:13:22;;;;;;;0.00;0.00;;;;;;;;;;10419074;28;20423;-70
2021/09/18 23:18:25;;;;;;;0.00;0.00;;;;;;;;;;10418342;28;20060;-70
2021/09/18 23:23:28;;;;;;;0.00;0.00;;;;;;;;;;10414338;28;20033;-69
2021/09/18 23:28:33;;;;;;;0.00;0.00;;;;;;;;;;10415106;28;20057;-69
2021/09/18 23:33:36;;;;;;;0.00;0.00;;;;;;;;;;10416854;28;20049;-70
2021/09/18 23:38:40;;;;;;;0.00;0.00;;;;;;;;;;10415521;28;20036;-70
2021/09/18 23:43:45;;;;;;;0.00;0.00;;;;;;;;;;10414136;28;20041;-70
2021/09/18 23:48:48;;;;;;;0.00;0.00;;;;;;;;;;10419967;28;20069;-70
2021/09/18 23:53:53;;;;;;;0.00;0.00;;;;;;;;;;10418077;28;20041;-70
2021/09/18 23:58:57;;;;;;;0.00;0.00;;;;;;;;;;10423843;28;20041;-70
